Terminal Aerodrome Forecast
Issued by NWS

Home | Current Version | Previous Version | Text Only | Print | Product List | Glossary On
Versions: 1 2 3 4 5 6 7 8 9 10 11 12 13
000
FTUS46 KMTR 062345
TAFOAK
TAF
KOAK 062345Z 0700/0806 28016G21KT P6SM SCT250
     FM070300 28013KT P6SM FEW250
     FM070500 28011KT P6SM SCT014
      TEMPO 0705/0708 BKN012
     FM070800 28008KT 6SM BR OVC010
     FM071800 28010KT P6SM FEW010 SCT015
     FM072100 28015KT P6SM FEW012 FEW016
     FM080300 28010KT P6SM SCT010=

USA.gov is the U.S. government's official web portal to all federal, state and local government web resources and services.